Terminal Aerodrome Forecast
Issued by NWS Sioux Falls, SD

Home | Current Version | Previous Version | Graphics & Text | Print | Product List | Glossary On
Versions: 1 2 3 4 5 6 7 8 9 10 11 12 13
000
FTUS43 KFSD 010218 AAA
TAFHON
TAF AMD
KHON 010218Z 0102/0124 33005KT 6SM FU SCT110 BKN200
     FM011500 11009KT P6SM BKN200
     FM011800 15012KT P6SM SCT120 BKN200=

USA.gov is the U.S. government's official web portal to all federal, state and local government web resources and services.